Time;durP1;ratioP1;P1;durP2;ratioP2;P2;SDS_P1;SDS_P2;PMS_P1;PMS_P2;Temp;Humidity;BMP_temperature;BMP_pressure;BME280_temperature;BME280_humidity;BME280_pressure;Samples;Min_cycle;Max_cycle;Signal;HPM_P1;HPM_P2
2021/01/21 00:00:12;;;;;;;43.30;16.25;;;;;;;3.27;56.38;96612.97;9920102;29;20063;-76
2021/01/21 00:05:38;;;;;;;89.55;22.20;;;;;;;3.20;57.00;96614.56;9906558;29;20094;-76
2021/01/21 00:10:58;;;;;;;45.50;14.90;;;;;;;3.12;58.13;96611.19;9907345;29;20511;-76
2021/01/21 00:16:19;;;;;;;33.47;15.77;;;;;;;2.99;57.79;96609.50;9919952;29;20097;-76
2021/01/21 00:21:38;;;;;;;54.97;23.05;;;;;;;2.84;57.53;96604.91;9933372;29;20063;-76
2021/01/21 00:26:58;;;;;;;29.73;14.63;;;;;;;2.75;58.46;96602.09;9939181;29;20082;-76
2021/01/21 00:32:18;;;;;;;47.83;17.70;;;;;;;2.65;58.05;96596.50;9939870;29;20082;-76
2021/01/21 00:37:38;;;;;;;16.67;9.55;;;;;;;2.55;58.94;96603.97;9952621;29;20086;-76
2021/01/21 00:42:59;;;;;;;18.67;9.82;;;;;;;2.51;58.51;96601.63;9938771;29;20067;-75
2021/01/21 00:48:19;;;;;;;13.10;8.55;;;;;;;2.51;58.94;96587.84;9925953;29;20067;-76
2021/01/21 00:53:39;;;;;;;17.23;9.50;;;;;;;2.49;59.53;96576.66;9938401;29;20117;-76
2021/01/21 00:58:59;;;;;;;14.68;8.35;;;;;;;2.52;59.92;96572.06;9926695;29;20062;-76
2021/01/21 01:04:19;;;;;;;12.75;7.55;;;;;;;2.49;60.33;96573.19;9952857;29;20069;-76
2021/01/21 01:09:38;;;;;;;14.80;8.65;;;;;;;2.45;60.22;96573.59;9952537;29;20063;-76
2021/01/21 01:14:59;;;;;;;14.68;8.43;;;;;;;2.45;60.14;96573.59;9938963;29;20066;-76
2021/01/21 01:20:19;;;;;;;14.93;8.82;;;;;;;2.41;59.62;96576.00;9912378;29;20059;-76
2021/01/21 01:25:40;;;;;;;16.30;9.88;;;;;;;2.36;60.30;96571.50;9913544;29;20096;-76
2021/01/21 01:30:59;;;;;;;14.77;8.80;;;;;;;2.35;60.67;96585.84;9924341;29;20067;-75
2021/01/21 01:36:19;;;;;;;25.80;12.90;;;;;;;2.31;60.90;96583.47;9936337;29;20118;-76
2021/01/21 01:41:39;;;;;;;18.60;10.85;;;;;;;2.17;60.56;96579.59;9911703;29;20059;-76
2021/01/21 01:47:00;;;;;;;16.90;10.38;;;;;;;2.07;60.47;96576.75;9951307;29;20090;-76
2021/01/21 01:52:20;;;;;;;15.05;9.30;;;;;;;1.98;61.07;96578.13;9936366;29;20069;-76
2021/01/21 01:58:00;;;;;;;17.52;10.43;;;;;;;1.87;61.52;96577.88;9950269;29;20059;-76
2021/01/21 02:03:32;;;;;;;14.02;8.10;;;;;;;1.95;62.62;96565.50;9923990;29;20062;-76
2021/01/21 02:09:16;;;;;;;14.45;8.80;;;;;;;2.08;62.46;96571.97;9916367;29;20459;-76
2021/01/21 02:15:02;;;;;;;12.77;7.30;;;;;;;2.20;64.41;96559.19;9923803;29;20094;-76
2021/01/21 02:21:18;;;;;;;12.65;7.40;;;;;;;2.28;64.45;96565.34;9914154;29;20074;-76
2021/01/21 02:26:44;;;;;;;12.38;7.15;;;;;;;2.32;63.67;96562.91;9942055;29;20063;-76
2021/01/21 02:32:07;;;;;;;13.40;7.45;;;;;;;2.34;63.34;96579.59;9923696;29;20145;-76
2021/01/21 02:37:32;;;;;;;12.60;6.57;;;;;;;2.35;62.57;96578.31;9948320;29;20412;-76
2021/01/21 02:42:57;;;;;;;;;;;;;;;2.37;63.39;96581.22;9923000;29;20063;-76
2021/01/21 02:48:19;;;;;;;12.88;7.10;;;;;;;2.31;62.77;96575.22;9920929;29;19925;-76
2021/01/21 02:54:40;;;;;;;13.23;7.18;;;;;;;2.33;64.24;96577.41;9924317;29;20472;-75
2021/01/21 03:00:07;;;;;;;12.90;7.20;;;;;;;2.33;63.99;96572.63;9922414;29;20065;-76
2021/01/21 03:05:28;;;;;;;15.75;8.35;;;;;;;2.27;64.01;96577.66;9933786;29;20073;-76
2021/01/21 03:10:49;;;;;;;13.95;8.35;;;;;;;2.19;65.37;96591.50;9921210;29;20129;-76
2021/01/21 03:16:12;;;;;;;15.32;8.68;;;;;;;2.12;65.02;96584.03;9921137;29;20498;-75
2021/01/21 03:21:33;;;;;;;15.98;9.15;;;;;;;2.01;64.89;96570.75;9921371;29;20101;-76
2021/01/21 03:26:57;;;;;;;20.42;12.43;;;;;;;1.80;65.24;96564.91;9921038;29;20509;-76
2021/01/21 03:32:17;;;;;;;23.30;13.93;;;;;;;1.52;66.69;96557.78;9932983;29;20071;-76
2021/01/21 03:37:47;;;;;;;20.98;13.63;;;;;;;1.36;65.44;96557.94;9921567;29;20069;-76
2021/01/21 03:43:06;;;;;;;20.05;12.88;;;;;;;1.29;66.06;96566.97;9932799;29;20070;-76
2021/01/21 03:48:46;;;;;;;19.15;12.10;;;;;;;1.28;66.84;96554.50;9922375;29;20123;-76
2021/01/21 03:54:26;;;;;;;19.25;11.80;;;;;;;1.23;67.98;96544.44;9934290;29;20066;-76
2021/01/21 03:59:46;;;;;;;18.90;11.50;;;;;;;1.16;69.55;96537.00;9924017;29;20583;-75
2021/01/21 04:05:06;;;;;;;17.23;10.48;;;;;;;1.12;69.79;96540.13;9953669;29;20059;-76
2021/01/21 04:10:29;;;;;;;15.43;9.50;;;;;;;1.08;69.52;96536.31;9927285;29;20069;-76
2021/01/21 04:16:12;;;;;;;16.55;10.48;;;;;;;0.98;70.10;96538.94;9952940;29;20063;-76
2021/01/21 04:21:32;;;;;;;16.05;9.43;;;;;;;0.86;71.51;96527.63;9939613;29;20073;-76
2021/01/21 04:27:05;;;;;;;16.13;9.70;;;;;;;0.83;70.75;96520.53;9917349;29;20142;-76
2021/01/21 04:32:35;;;;;;;13.85;8.85;;;;;;;0.82;70.94;96516.31;9938974;29;20150;-76
2021/01/21 04:37:58;;;;;;;15.20;10.43;;;;;;;0.84;71.94;96516.47;9939202;29;20418;-76
2021/01/21 04:43:50;;;;;;;18.27;10.45;;;;;;;0.89;71.39;96539.56;9928265;29;20063;-76
2021/01/21 04:49:29;;;;;;;34.00;13.13;;;;;;;0.95;70.75;96539.31;9941070;29;20097;-76
2021/01/21 04:54:54;;;;;;;14.95;10.15;;;;;;;1.02;70.77;96535.81;9926981;29;20066;-76
2021/01/21 05:00:21;;;;;;;16.42;9.95;;;;;;;1.06;71.13;96544.38;9939782;29;20090;-76
2021/01/21 05:05:50;;;;;;;33.55;14.75;;;;;;;1.10;70.82;96561.94;9926290;29;20395;-76
2021/01/21 05:11:10;;;;;;;17.75;11.10;;;;;;;1.07;70.68;96562.34;9910649;29;20069;-75
2021/01/21 05:16:49;;;;;;;15.75;10.60;;;;;;;1.07;70.78;96562.34;9949836;29;20058;-76
2021/01/21 05:22:45;;;;;;;15.73;10.32;;;;;;;1.09;70.66;96565.25;9890684;29;20070;-75
2021/01/21 05:28:17;;;;;;;33.72;15.18;;;;;;;1.05;70.69;96570.41;9950117;29;20067;-75
2021/01/21 05:33:58;;;;;;;17.08;11.60;;;;;;;1.01;70.77;96564.56;9916574;29;20063;-75
2021/01/21 05:39:40;;;;;;;17.60;11.15;;;;;;;1.01;71.17;96559.81;9925978;29;20545;-75
2021/01/21 05:45:26;;;;;;;15.57;10.75;;;;;;;0.97;70.90;96553.97;9935863;29;20137;-76
2021/01/21 05:50:54;;;;;;;17.08;12.02;;;;;;;0.93;71.63;96547.41;9925106;29;20069;-75
2021/01/21 05:56:17;;;;;;;17.92;12.00;;;;;;;0.89;72.18;96566.31;9911180;29;20063;-76
2021/01/21 06:02:00;;;;;;;19.50;11.55;;;;;;;0.85;71.63;96555.69;9938686;29;20063;-75
2021/01/21 06:07:30;;;;;;;;;;;;;;;0.78;72.08;96540.72;9924183;29;20071;-76
2021/01/21 06:12:52;;;;;;;17.25;12.05;;;;;;;0.70;72.71;96536.53;9924601;29;19932;-75
2021/01/21 06:18:12;;;;;;;20.85;12.40;;;;;;;0.67;72.02;96557.59;9936418;29;20093;-76
2021/01/21 06:23:43;;;;;;;21.20;13.40;;;;;;;0.68;72.29;96555.59;9923964;29;20066;-76
2021/01/21 06:29:16;;;;;;;21.67;13.93;;;;;;;0.67;72.83;96546.59;9924725;29;20062;-76
2021/01/21 06:34:38;;;;;;;19.75;14.75;;;;;;;0.54;72.88;96544.13;9935412;29;20066;-76
2021/01/21 06:40:09;;;;;;;21.63;14.95;;;;;;;0.42;73.32;96562.28;9923282;29;20220;-76
2021/01/21 06:45:31;;;;;;;22.73;14.93;;;;;;;0.34;73.72;96553.34;9934594;29;20082;-76
2021/01/21 06:50:51;;;;;;;21.50;15.05;;;;;;;0.30;74.11;96544.78;9948328;29;20098;-76
2021/01/21 06:56:11;;;;;;;20.70;15.30;;;;;;;0.46;74.11;96543.41;9921401;29;20494;-75
2021/01/21 07:01:31;;;;;;;22.92;15.25;;;;;;;0.64;73.77;96555.97;9933820;29;20093;-75
2021/01/21 07:07:03;;;;;;;20.00;14.90;;;;;;;0.86;73.36;96541.38;9933732;29;20073;-75
2021/01/21 07:12:24;;;;;;;22.00;16.17;;;;;;;1.56;73.20;96549.91;9947119;29;20051;-75
2021/01/21 07:17:43;;;;;;;23.25;16.35;;;;;;;2.38;70.39;96546.13;9933590;29;20066;-75
2021/01/21 07:23:06;;;;;;;21.55;16.30;;;;;;;2.28;70.01;96548.81;9947041;29;20066;-75
2021/01/21 07:28:25;;;;;;;21.70;16.63;;;;;;;2.12;70.46;96539.25;9934075;29;20071;-75
2021/01/21 07:33:45;;;;;;;24.13;16.67;;;;;;;2.05;70.07;96545.59;9932597;29;20071;-75
2021/01/21 07:39:08;;;;;;;24.15;16.90;;;;;;;1.89;69.87;96553.97;9946794;29;20062;-75
2021/01/21 07:44:54;;;;;;;24.42;16.85;;;;;;;1.88;69.89;96554.56;9921260;29;20062;-75
2021/01/21 07:50:17;;;;;;;24.88;16.92;;;;;;;2.05;70.63;96556.59;9933014;29;20434;-75
2021/01/21 07:55:38;;;;;;;22.90;16.70;;;;;;;2.45;69.69;96537.78;9947528;29;20074;-76
2021/01/21 08:01:00;;;;;;;24.42;16.33;;;;;;;4.24;69.07;96537.41;9932571;29;20063;-76
2021/01/21 08:06:25;;;;;;;19.48;16.25;;;;;;;6.89;64.14;96530.91;9920156;29;20100;-76
2021/01/21 08:11:44;;;;;;;21.00;17.23;;;;;;;9.66;59.59;96543.06;9920289;29;20113;-74
2021/01/21 08:17:04;;;;;;;20.90;17.20;;;;;;;10.24;53.60;96534.19;9919878;29;20549;-74
2021/01/21 08:22:24;;;;;;;20.02;16.42;;;;;;;10.26;53.15;96537.06;9933349;29;20461;-74
2021/01/21 08:27:45;;;;;;;21.20;17.38;;;;;;;8.38;54.13;96536.16;9919519;29;20063;-74
2021/01/21 08:33:26;;;;;;;22.80;17.42;;;;;;;7.23;56.75;96537.09;9920271;29;20392;-77
2021/01/21 08:38:45;;;;;;;22.73;17.63;;;;;;;5.71;58.23;96536.47;9919208;29;20071;-77
2021/01/21 08:44:05;;;;;;;24.67;18.35;;;;;;;5.34;59.92;96544.34;9907576;29;20507;-76
2021/01/21 08:49:25;;;;;;;23.88;18.45;;;;;;;6.88;59.62;96546.09;9938899;29;20413;-77
2021/01/21 08:54:52;;;;;;;22.95;17.70;;;;;;;11.62;54.30;96537.09;9952593;29;20062;-74
2021/01/21 09:00:13;;;;;;;20.48;17.33;;;;;;;15.43;45.20;96542.69;9938269;29;20070;-75
2021/01/21 09:05:32;;;;;;;21.70;17.70;;;;;;;15.70;39.15;96547.72;9937969;29;20196;-75
2021/01/21 09:10:56;;;;;;;20.83;17.52;;;;;;;13.81;42.97;96566.16;9942245;29;20532;-77
2021/01/21 09:16:16;;;;;;;21.35;16.92;;;;;;;14.47;41.37;96576.19;9944408;29;20407;-77
2021/01/21 09:21:36;;;;;;;21.13;17.35;;;;;;;15.41;40.56;96576.38;9955175;29;20119;-77
2021/01/21 09:27:12;;;;;;;18.08;16.15;;;;;;;21.47;31.08;96578.38;9954730;29;20425;-77
2021/01/21 09:32:43;;;;;;;17.45;15.55;;;;;;;16.69;30.40;96582.03;9954702;29;20123;-77
2021/01/21 09:38:02;;;;;;;19.70;16.27;;;;;;;11.21;37.57;96570.16;9941549;29;20079;-77
2021/01/21 09:43:23;;;;;;;19.13;15.07;;;;;;;8.85;42.35;96565.25;9954912;29;20097;-76
2021/01/21 09:48:43;;;;;;;18.30;15.30;;;;;;;7.81;44.23;96549.53;9951049;29;20070;-77
2021/01/21 09:54:05;;;;;;;18.13;15.13;;;;;;;8.83;46.87;96567.19;9939373;29;20503;-76
2021/01/21 09:59:25;;;;;;;18.90;15.40;;;;;;;10.97;43.63;96542.53;9939795;29;20063;-76
2021/01/21 10:04:45;;;;;;;18.10;15.00;;;;;;;12.92;39.99;96529.84;9930404;29;20073;-76
2021/01/21 10:10:07;;;;;;;17.17;14.35;;;;;;;13.24;39.97;96513.63;9917531;29;20058;-76
2021/01/21 10:15:27;;;;;;;14.77;13.27;;;;;;;17.69;34.53;96517.34;9950562;29;20442;-76
2021/01/21 10:20:47;;;;;;;14.25;12.75;;;;;;;22.75;25.64;96513.47;9941715;29;20499;-75
2021/01/21 10:26:07;;;;;;;12.57;11.27;;;;;;;21.00;24.76;96534.75;9951258;29;20146;-75
2021/01/21 10:38:11;;;;;;;15.23;11.10;;;;;;;17.62;30.07;96541.91;11068685;24;20135;-81
2021/01/21 10:43:48;;;;;;;11.65;10.45;;;;;;;15.64;30.54;96538.41;10010018;24;20509;-78
2021/01/21 10:49:08;;;;;;;13.18;11.00;;;;;;;14.89;31.92;96526.31;9951504;29;20066;-76
2021/01/21 10:54:29;;;;;;;13.23;10.77;;;;;;;14.18;32.49;96528.88;9985636;29;20099;-76
2021/01/21 10:59:52;;;;;;;11.70;9.50;;;;;;;13.12;33.89;96525.78;9988830;29;20171;-77
2021/01/21 11:05:14;;;;;;;11.95;10.75;;;;;;;12.29;35.45;96514.81;9974069;29;20061;-76
2021/01/21 11:10:35;;;;;;;12.07;10.55;;;;;;;11.81;36.08;96504.38;9985391;29;20513;-77
2021/01/21 11:15:55;;;;;;;12.70;10.88;;;;;;;11.87;36.66;96515.81;9973966;29;20514;-76
2021/01/21 11:21:15;;;;;;;12.52;10.80;;;;;;;12.10;37.12;96521.00;9977828;29;20073;-76
2021/01/21 11:26:35;;;;;;;14.27;10.88;;;;;;;11.67;37.55;96532.41;9962978;29;20506;-76
2021/01/21 11:31:55;;;;;;;14.20;10.60;;;;;;;10.73;37.90;96538.63;9987276;29;20459;-75
2021/01/21 11:49:51;;;;;;;14.55;9.98;;;;;;;8.79;41.55;96500.94;11365752;24;20150;-78
2021/01/21 11:55:13;;;;;;;12.15;9.70;;;;;;;8.37;43.23;96495.78;9958971;29;20514;-80
2021/01/21 12:00:33;;;;;;;12.70;9.85;;;;;;;8.12;43.81;96485.34;9987811;29;20063;-79
2021/01/21 12:58:34;;;;;;;11.73;8.77;;;;;;;7.92;47.00;96440.47;10080319;24;20536;-79
2021/01/21 13:04:27;;;;;;;11.45;9.50;;;;;;;7.41;48.22;96418.09;11012016;24;20483;-76
2021/01/21 13:09:47;;;;;;;12.77;9.38;;;;;;;7.35;49.08;96410.16;9951564;29;20157;-78
2021/01/21 13:15:07;;;;;;;12.93;10.13;;;;;;;7.00;49.86;96412.94;9963594;29;20068;-77
2021/01/21 13:20:27;;;;;;;21.27;9.77;;;;;;;6.67;51.63;96407.50;9974208;29;20061;-76
2021/01/21 13:26:05;;;;;;;12.20;9.55;;;;;;;6.54;50.42;96411.56;9999799;29;20069;-80
2021/01/21 13:37:53;;;;;;;12.07;9.02;;;;;;;6.50;51.11;96399.53;10260999;24;20056;-80
2021/01/21 13:43:20;;;;;;;12.25;8.55;;;;;;;6.70;51.57;96394.47;9912747;30;20056;-80
2021/01/21 13:48:46;;;;;;;13.25;9.02;;;;;;;7.03;50.88;96406.19;9980998;24;20135;-80
2021/01/21 13:54:06;;;;;;;12.57;8.30;;;;;;;7.60;50.24;96417.81;10297093;24;20069;-80
2021/01/21 14:06:31;;;;;;;12.98;8.05;;;;;;;7.65;49.88;96429.91;12104475;24;20123;31
2021/01/21 14:12:18;;;;;;;9.05;7.30;;;;;;;7.58;49.68;96433.66;10978801;24;20050;-79
2021/01/21 14:17:40;;;;;;;13.10;9.00;;;;;;;7.49;49.86;96434.50;9972721;29;20165;-75
2021/01/21 14:23:19;;;;;;;14.13;7.82;;;;;;;7.30;50.28;96416.78;10004094;29;20076;-80
2021/01/21 14:30:19;;;;;;;10.65;8.35;;;;;;;7.38;50.72;96408.22;10020319;29;20062;-80
2021/01/21 14:42:18;;;;;;;13.20;8.25;;;;;;;7.66;50.18;96414.69;9840656;27;20569;-80
2021/01/21 14:47:41;;;;;;;12.70;8.55;;;;;;;7.43;50.05;96432.09;9909188;29;20130;-81
2021/01/21 14:53:02;;;;;;;10.50;8.10;;;;;;;7.00;51.09;96437.91;9933261;29;20071;-76
2021/01/21 14:58:23;;;;;;;12.20;8.05;;;;;;;6.67;51.50;96409.56;9953403;29;20316;-78
2021/01/21 15:03:59;;;;;;;10.00;8.15;;;;;;;6.35;52.45;96403.44;9940441;29;20130;-76
2021/01/21 15:09:19;;;;;;;17.73;9.27;;;;;;;5.99;53.82;96408.19;9946288;29;20094;-76
2021/01/21 15:14:39;;;;;;;14.52;9.07;;;;;;;5.62;54.45;96423.75;9932661;29;20176;-78
2021/01/21 15:20:00;;;;;;;15.85;8.93;;;;;;;5.30;55.11;96423.03;9945995;29;20145;-78
2021/01/21 15:25:23;;;;;;;12.18;8.98;;;;;;;5.14;54.92;96431.00;9946569;29;20059;-78
2021/01/21 15:30:46;;;;;;;13.57;9.13;;;;;;;4.99;56.06;96416.81;9952981;29;20141;-78
2021/01/21 15:36:06;;;;;;;12.63;8.85;;;;;;;4.84;55.25;96440.75;9960740;29;20090;-81
2021/01/21 15:41:26;;;;;;;12.45;8.80;;;;;;;4.70;56.42;96439.75;9932570;29;20066;-78
2021/01/21 15:46:46;;;;;;;12.45;9.05;;;;;;;4.62;55.73;96436.44;9932046;29;20071;-77
2021/01/21 15:52:25;;;;;;;12.68;8.68;;;;;;;4.54;57.04;96413.78;10155521;24;20139;-78
2021/01/21 15:57:45;;;;;;;14.40;9.38;;;;;;;4.48;57.57;96411.31;9900795;29;20071;-77
2021/01/21 16:03:05;;;;;;;17.17;10.65;;;;;;;4.34;58.87;96393.03;9951489;29;20066;-77
2021/01/21 16:08:26;;;;;;;15.88;11.00;;;;;;;4.15;60.43;96402.06;9985771;29;20476;-81
2021/01/21 16:13:48;;;;;;;14.10;10.20;;;;;;;3.99;61.35;96404.44;9999534;29;20074;-81
2021/01/21 16:19:10;;;;;;;15.63;10.37;;;;;;;3.97;59.50;96390.50;9983550;29;20513;-77
2021/01/21 16:24:30;;;;;;;14.63;10.88;;;;;;;4.06;60.70;96389.75;9998593;29;20145;-77
2021/01/21 16:36:23;;;;;;;12.52;8.85;;;;;;;4.44;59.74;96377.16;9865251;27;20071;-75
2021/01/21 16:41:53;;;;;;;17.40;9.95;;;;;;;4.70;58.78;96381.72;9875633;30;20063;-80
2021/01/21 16:47:23;;;;;;;13.05;9.30;;;;;;;4.96;58.30;96379.28;9918587;30;20069;-78
2021/01/21 16:53:02;;;;;;;12.10;8.40;;;;;;;5.14;57.70;96403.34;9927128;29;20515;-78
2021/01/21 17:04:13;;;;;;;13.48;9.43;;;;;;;5.11;57.88;96384.41;9961531;24;20076;-78
2021/01/21 17:09:33;;;;;;;15.35;10.18;;;;;;;4.98;58.03;96377.38;9913243;29;20605;-80
2021/01/21 17:21:01;;;;;;;17.50;11.85;;;;;;;4.73;58.17;96401.91;9930269;27;20067;-80
2021/01/21 17:26:24;;;;;;;16.13;10.90;;;;;;;4.59;58.77;96415.50;10477070;24;20475;-79
2021/01/21 17:52:14;;;;;;;15.55;9.43;;;;;;;5.04;58.71;96435.13;10644712;24;20058;-79
2021/01/21 17:57:34;;;;;;;14.45;9.35;;;;;;;5.26;59.18;96411.72;9917399;30;20067;-75
2021/01/21 18:09:19;;;;;;;12.38;8.55;;;;;;;5.47;58.74;96395.13;10167469;24;20091;-78
2021/01/21 18:14:39;;;;;;;12.98;8.68;;;;;;;5.46;58.62;96393.69;10267595;24;20552;-82
2021/01/21 18:46:18;;;;;;;12.82;8.48;;;;;;;5.27;58.15;96382.72;10779983;24;20406;-79
2021/01/21 18:51:38;;;;;;;12.20;8.90;;;;;;;5.25;58.25;96376.34;9883539;30;20192;-77
2021/01/21 18:57:03;;;;;;;11.32;8.02;;;;;;;5.25;58.04;96376.34;9923176;29;20106;-79
2021/01/21 19:02:23;;;;;;;;;;;;;;;5.30;58.21;96378.78;9954930;29;20066;-78
2021/01/21 19:07:44;;;;;;;16.35;7.65;;;;;;;5.42;57.67;96373.34;9946285;29;19932;-78
2021/01/21 19:13:04;;;;;;;10.52;7.35;;;;;;;5.55;57.17;96374.84;9951667;29;20062;-77
2021/01/21 19:18:23;;;;;;;12.50;7.28;;;;;;;5.61;57.54;96361.41;9970126;29;20426;-77
2021/01/21 19:23:44;;;;;;;12.95;7.45;;;;;;;5.66;57.26;96352.00;9969957;29;20073;-76
2021/01/21 19:29:04;;;;;;;11.05;7.70;;;;;;;5.57;57.52;96352.81;9983221;29;20077;-78
2021/01/21 19:34:23;;;;;;;11.05;7.55;;;;;;;5.55;57.33;96349.91;9959975;29;20072;-77
2021/01/21 19:39:43;;;;;;;13.15;8.18;;;;;;;5.61;57.16;96328.16;9970266;29;20068;-78
2021/01/21 19:45:05;;;;;;;13.27;7.93;;;;;;;5.68;56.77;96335.53;9963974;29;20145;-79
2021/01/21 19:50:25;;;;;;;11.63;7.30;;;;;;;5.77;57.06;96318.09;9990166;29;20104;-81
2021/01/21 19:55:45;;;;;;;12.52;6.78;;;;;;;5.87;56.69;96318.72;9981821;29;20369;-78
2021/01/21 20:01:05;;;;;;;8.80;6.15;;;;;;;5.98;56.16;96304.25;9941043;29;20066;-78
2021/01/21 20:06:28;;;;;;;10.40;6.50;;;;;;;6.07;56.09;96297.13;9918974;29;20066;-77
2021/01/21 20:25:01;;;;;;;9.13;6.57;;;;;;;6.21;55.72;96298.00;11979379;24;20032;-80
2021/01/21 20:30:21;;;;;;;10.88;6.28;;;;;;;6.26;54.95;96290.66;9869967;30;20075;-80
2021/01/21 20:35:41;;;;;;;7.72;5.47;;;;;;;6.29;55.65;96292.25;9908671;30;20096;-80
2021/01/21 20:41:01;;;;;;;10.50;6.75;;;;;;;6.30;55.35;96296.47;9906232;29;20071;-81
2021/01/21 20:46:21;;;;;;;10.90;6.65;;;;;;;6.28;54.91;96291.53;9881490;30;20125;-79
2021/01/21 20:51:41;;;;;;;10.98;7.07;;;;;;;6.25;54.81;96286.44;9900893;30;20070;-79
2021/01/21 20:57:01;;;;;;;9.32;6.57;;;;;;;6.24;55.00;96280.19;9899888;30;20483;-77
2021/01/21 21:02:21;;;;;;;9.48;6.47;;;;;;;6.21;55.01;96269.59;9918703;30;20071;-78
2021/01/21 21:07:42;;;;;;;11.00;7.05;;;;;;;6.21;54.64;96264.03;9901599;30;20067;-75
2021/01/21 21:13:02;;;;;;;11.48;7.00;;;;;;;6.20;54.28;96268.13;9913062;30;20405;-76
2021/01/21 21:18:22;;;;;;;13.93;7.35;;;;;;;6.10;54.29;96256.44;9912734;30;20070;-76
2021/01/21 21:23:49;;;;;;;11.50;7.78;;;;;;;5.93;54.78;96255.44;9912725;30;20067;-75
2021/01/21 21:29:09;;;;;;;11.48;7.43;;;;;;;5.84;54.57;96250.00;9899293;30;20067;-75
2021/01/21 21:34:29;;;;;;;10.63;6.93;;;;;;;5.73;54.61;96237.56;9912317;30;20067;-75
2021/01/21 21:39:49;;;;;;;10.95;6.88;;;;;;;5.77;54.94;96223.25;9912095;30;20059;-75
2021/01/21 21:45:10;;;;;;;13.77;7.80;;;;;;;5.76;54.74;96222.53;9912232;30;20063;-75
2021/01/21 21:50:30;;;;;;;12.27;6.82;;;;;;;5.73;55.09;96218.19;9912886;30;20091;-76
2021/01/21 21:55:50;;;;;;;10.68;7.38;;;;;;;5.66;55.07;96219.13;9917354;29;20059;-75
2021/01/21 22:01:10;;;;;;;10.70;7.18;;;;;;;5.63;55.10;96200.97;9899312;30;20093;-78
2021/01/21 22:06:30;;;;;;;10.13;7.50;;;;;;;5.55;55.53;96192.16;9899428;30;20063;-75
2021/01/21 22:11:51;;;;;;;10.43;7.85;;;;;;;5.52;55.34;96198.88;9912315;30;20508;-76
2021/01/21 22:17:14;;;;;;;12.15;7.65;;;;;;;5.47;55.56;96184.78;9898584;30;20142;-76
2021/01/21 22:22:33;;;;;;;13.85;8.52;;;;;;;5.53;55.23;96178.91;9911896;30;20059;-76
2021/01/21 22:27:53;;;;;;;10.90;7.32;;;;;;;5.60;55.47;96172.44;9898168;29;20568;-76
2021/01/21 22:33:13;;;;;;;12.13;8.85;;;;;;;5.62;55.02;96163.53;9911900;30;20067;-76
2021/01/21 22:38:33;;;;;;;11.25;7.50;;;;;;;5.60;55.12;96144.75;9897626;30;20063;-76
2021/01/21 22:43:52;;;;;;;10.82;7.68;;;;;;;5.59;55.01;96137.03;9912212;30;20070;-76
2021/01/21 22:49:12;;;;;;;12.27;8.43;;;;;;;5.58;55.28;96136.31;9897711;30;20500;-76
2021/01/21 22:54:33;;;;;;;12.68;7.80;;;;;;;5.57;55.06;96123.06;9898358;30;20063;-76
2021/01/21 22:59:52;;;;;;;12.23;8.38;;;;;;;5.56;55.23;96116.09;9910697;30;20059;-76
2021/01/21 23:05:12;;;;;;;10.82;7.43;;;;;;;5.54;55.29;96108.41;9897944;30;20138;-76
2021/01/21 23:10:32;;;;;;;10.20;6.90;;;;;;;5.56;55.23;96086.38;9896528;30;20102;-76
2021/01/21 23:15:52;;;;;;;10.55;7.15;;;;;;;5.56;55.33;96078.06;9911203;30;20063;-76
2021/01/21 23:21:12;;;;;;;10.68;7.25;;;;;;;5.56;55.21;96069.03;9910993;30;20079;-76
2021/01/21 23:26:32;;;;;;;9.35;6.57;;;;;;;5.59;54.98;96054.00;9896307;29;20078;-76
2021/01/21 23:31:51;;;;;;;11.55;6.93;;;;;;;5.64;55.23;96042.56;9909626;30;20062;-76
2021/01/21 23:37:11;;;;;;;11.25;7.18;;;;;;;5.64;55.04;96034.25;9910000;30;20063;-76
2021/01/21 23:42:31;;;;;;;10.57;6.82;;;;;;;5.68;55.01;96028.22;9912279;30;20070;-76
2021/01/21 23:47:51;;;;;;;11.73;6.38;;;;;;;5.70;55.06;96031.84;9909217;30;20531;-76
2021/01/21 23:53:11;;;;;;;10.70;6.68;;;;;;;5.70;54.59;96026.31;9883752;30;20148;-76
2021/01/21 23:58:31;;;;;;;10.55;6.85;;;;;;;5.73;54.78;96013.31;9909546;30;20070;-76
